createdAt,value
2017-09-21T00:01:07.698Z,85.34
2017-09-21T00:03:35.125Z,86.08
2017-09-21T00:06:02.619Z,85.61
2017-09-21T00:08:30.065Z,84.48
2017-09-21T00:10:57.521Z,84.91
2017-09-21T00:13:24.966Z,85.67
2017-09-21T00:15:52.436Z,86.25
2017-09-21T00:18:20.074Z,85.87
2017-09-21T00:20:47.600Z,85.97
2017-09-21T00:23:15.037Z,85.46
2017-09-21T00:25:42.469Z,85.75
2017-09-21T00:28:09.940Z,85.83
2017-09-21T00:30:37.886Z,86.19
2017-09-21T00:33:05.345Z,85.94
2017-09-21T00:35:32.831Z,85.46
2017-09-21T00:38:00.297Z,85.47
2017-09-21T00:40:27.737Z,85.84
2017-09-21T00:42:55.239Z,85.82
2017-09-21T00:45:22.679Z,85.78
2017-09-21T00:47:50.148Z,85.33
2017-09-21T00:50:17.577Z,85.34
2017-09-21T00:52:45.039Z,85.06
2017-09-21T00:55:12.480Z,84.53
2017-09-21T00:57:39.947Z,85.25
2017-09-21T01:00:07.402Z,85.80
2017-09-21T01:02:34.856Z,85.71
2017-09-21T01:05:02.324Z,85.32
2017-09-21T01:07:29.893Z,84.66
2017-09-21T01:09:57.392Z,85.40
2017-09-21T01:12:24.873Z,85.89
2017-09-21T01:14:52.352Z,84.83
2017-09-21T01:17:19.907Z,85.39
2017-09-21T01:19:47.436Z,85.18
2017-09-21T01:22:14.896Z,85.03
2017-09-21T01:24:42.378Z,85.78
2017-09-21T01:27:09.855Z,85.91
2017-09-21T01:29:37.329Z,85.66
2017-09-21T01:32:04.793Z,86.43
2017-09-21T01:34:32.264Z,86.16
2017-09-21T01:36:59.785Z,85.88
2017-09-21T01:39:27.268Z,86.05
2017-09-21T01:41:54.745Z,86.33
2017-09-21T01:44:22.239Z,86.37
2017-09-21T01:46:49.709Z,85.88
2017-09-21T01:49:17.192Z,85.34
2017-09-21T01:51:44.636Z,85.65
2017-09-21T01:54:12.129Z,85.31
2017-09-21T01:56:39.629Z,85.66
2017-09-21T01:59:07.084Z,85.74
2017-09-21T02:01:34.648Z,85.62
2017-09-21T02:04:02.718Z,85.38
2017-09-21T02:06:30.241Z,85.80
2017-09-21T02:08:57.735Z,86.28
2017-09-21T02:11:25.297Z,86.53
2017-09-21T02:13:52.756Z,86.83
2017-09-21T02:16:20.234Z,86.77
2017-09-21T02:18:47.718Z,86.91
2017-09-21T02:21:15.518Z,87.25
2017-09-21T02:23:42.965Z,86.72
2017-09-21T02:26:10.417Z,86.71
2017-09-21T02:28:37.897Z,86.25
2017-09-21T02:31:05.366Z,84.18
2017-09-21T02:33:32.920Z,85.26
2017-09-21T02:36:00.383Z,86.60
2017-09-21T02:38:27.860Z,88.21
2017-09-21T02:40:55.309Z,87.19
2017-09-21T02:43:22.792Z,86.71
2017-09-21T02:45:50.250Z,86.61
2017-09-21T02:48:17.729Z,86.41
2017-09-21T02:50:45.213Z,86.53
2017-09-21T02:53:12.705Z,86.56
2017-09-21T02:55:40.167Z,86.40
2017-09-21T02:58:07.645Z,85.82
2017-09-21T03:00:35.108Z,86.13
2017-09-21T03:03:02.781Z,85.81
2017-09-21T03:05:30.269Z,85.95
2017-09-21T03:07:57.715Z,86.50
2017-09-21T03:10:25.193Z,88.02
2017-09-21T03:12:52.745Z,86.39
2017-09-21T03:15:20.215Z,86.36
2017-09-21T03:17:47.671Z,87.45
2017-09-21T03:20:15.196Z,86.91
2017-09-21T03:22:42.649Z,86.67
2017-09-21T03:25:10.113Z,86.37
2017-09-21T03:27:37.570Z,86.97
2017-09-21T03:30:05.042Z,87.19
2017-09-21T03:32:32.484Z,88.33
2017-09-21T03:34:59.960Z,87.52
2017-09-21T03:37:27.403Z,87.10
2017-09-21T03:39:54.898Z,86.63
2017-09-21T03:42:22.357Z,86.82
2017-09-21T03:44:49.875Z,87.12
2017-09-21T03:47:17.424Z,86.81
2017-09-21T03:49:45.128Z,87.08
2017-09-21T03:52:12.595Z,88.26
2017-09-21T03:54:40.084Z,87.00
2017-09-21T03:57:07.565Z,87.10
2017-09-21T03:59:35.029Z,86.87
2017-09-21T04:02:02.537Z,86.99
2017-09-21T04:04:29.997Z,86.72
2017-09-21T04:06:57.485Z,86.94
2017-09-21T04:09:24.945Z,86.28
2017-09-21T04:11:52.427Z,86.69
2017-09-21T04:14:19.880Z,86.89
2017-09-21T04:16:47.385Z,86.72
2017-09-21T04:19:14.857Z,87.07
2017-09-21T04:21:42.342Z,86.77
2017-09-21T04:24:09.827Z,87.38
2017-09-21T04:26:37.315Z,87.57
2017-09-21T04:29:04.780Z,88.06
2017-09-21T04:31:32.252Z,87.23
2017-09-21T04:33:59.721Z,86.81
2017-09-21T04:36:28.183Z,86.33
2017-09-21T04:38:55.649Z,86.93
2017-09-21T04:41:23.137Z,87.32
2017-09-21T04:43:50.608Z,86.83
2017-09-21T04:46:18.125Z,87.62
2017-09-21T04:48:45.662Z,88.00
2017-09-21T04:51:13.127Z,88.03
2017-09-21T04:53:40.709Z,89.39
2017-09-21T04:56:08.187Z,89.38
2017-09-21T04:58:35.772Z,89.62
2017-09-21T05:01:03.245Z,89.58
2017-09-21T05:03:30.725Z,90.20
2017-09-21T05:05:58.198Z,88.96
2017-09-21T05:08:25.737Z,89.98
2017-09-21T05:10:53.301Z,90.02
2017-09-21T05:13:20.792Z,89.47
2017-09-21T05:15:48.248Z,89.84
2017-09-21T05:18:15.749Z,89.45
2017-09-21T05:20:43.213Z,90.60
2017-09-21T05:23:11.828Z,90.96
2017-09-21T05:25:41.511Z,90.81
2017-09-21T05:28:11.546Z,91.63
2017-09-21T05:30:39.001Z,91.64
2017-09-21T05:33:06.508Z,91.97
2017-09-21T05:35:34.390Z,92.41
2017-09-21T05:38:01.912Z,92.28
2017-09-21T05:40:29.409Z,92.23
2017-09-21T05:42:56.873Z,92.35
2017-09-21T05:45:24.361Z,92.54
2017-09-21T05:47:51.905Z,92.65
2017-09-21T05:50:19.392Z,93.06
2017-09-21T05:52:46.852Z,93.50
2017-09-21T05:55:14.389Z,93.75
2017-09-21T05:57:41.843Z,93.60
2017-09-21T06:00:09.326Z,93.23
2017-09-21T06:02:36.811Z,92.65
2017-09-21T06:05:04.305Z,92.75
2017-09-21T06:07:31.758Z,93.06
2017-09-21T06:09:59.245Z,92.98
2017-09-21T06:12:26.728Z,93.60
2017-09-21T06:14:54.233Z,91.67
2017-09-21T06:17:21.692Z,90.27
2017-09-21T06:19:49.150Z,87.95
2017-09-21T06:22:16.705Z,87.33
2017-09-21T06:24:44.165Z,90.87
2017-09-21T06:27:11.667Z,89.51
2017-09-21T06:29:39.125Z,89.86
2017-09-21T06:32:06.609Z,89.08
2017-09-21T06:34:34.121Z,90.53
2017-09-21T06:37:01.621Z,91.97
2017-09-21T06:39:29.091Z,92.62
2017-09-21T06:41:56.581Z,91.43
2017-09-21T06:44:24.044Z,92.11
2017-09-21T06:46:51.740Z,90.64
2017-09-21T06:49:19.258Z,89.32
2017-09-21T06:51:46.744Z,90.81
2017-09-21T06:54:14.221Z,91.59
2017-09-21T06:56:41.706Z,92.21
2017-09-21T06:59:09.180Z,89.64
2017-09-21T07:01:36.651Z,89.93
2017-09-21T07:04:04.133Z,90.99
2017-09-21T07:06:31.632Z,91.26
2017-09-21T07:08:59.104Z,90.96
2017-09-21T07:11:26.657Z,88.61
2017-09-21T07:13:54.153Z,88.09
2017-09-21T07:16:21.672Z,90.72
2017-09-21T07:18:49.145Z,91.21
2017-09-21T07:21:16.626Z,90.05
2017-09-21T07:23:44.093Z,89.58
2017-09-21T07:26:11.589Z,89.86
2017-09-21T07:28:39.039Z,89.79
2017-09-21T07:31:06.620Z,90.83
2017-09-21T07:33:34.078Z,90.90
2017-09-21T07:36:01.632Z,88.00
2017-09-21T07:38:29.096Z,88.24
2017-09-21T07:40:56.598Z,89.61
2017-09-21T07:43:24.053Z,90.26
2017-09-21T07:45:51.536Z,89.95
2017-09-21T07:48:19.002Z,90.28
2017-09-21T07:50:46.485Z,88.65
2017-09-21T07:53:13.950Z,88.08
2017-09-21T07:55:41.449Z,89.28
2017-09-21T07:58:09.313Z,89.62
2017-09-21T08:00:36.773Z,90.46
2017-09-21T08:03:04.273Z,88.05
2017-09-21T08:05:31.733Z,87.63
2017-09-21T08:07:59.212Z,88.32
2017-09-21T08:10:26.672Z,89.58
2017-09-21T08:12:54.147Z,89.01
2017-09-21T08:15:21.609Z,87.42
2017-09-21T08:17:49.079Z,87.07
2017-09-21T08:20:16.597Z,85.75
2017-09-21T08:22:44.551Z,88.68
2017-09-21T08:25:12.095Z,89.26
2017-09-21T08:27:39.837Z,89.63
2017-09-21T08:30:07.353Z,89.29
2017-09-21T08:32:34.864Z,89.38
2017-09-21T08:35:02.579Z,89.76
2017-09-21T08:37:30.192Z,88.60
2017-09-21T08:39:57.765Z,87.98
2017-09-21T08:42:25.305Z,85.97
2017-09-21T08:44:53.122Z,86.16
2017-09-21T08:47:20.987Z,85.91
2017-09-21T08:49:48.957Z,87.55
2017-09-21T08:52:16.619Z,88.42
2017-09-21T08:54:44.603Z,88.24
2017-09-21T08:57:12.555Z,88.95
2017-09-21T08:59:40.522Z,89.32
2017-09-21T09:02:08.494Z,89.42
2017-09-21T09:04:36.479Z,88.55
2017-09-21T09:07:04.427Z,89.25
2017-09-21T09:09:32.398Z,89.26
2017-09-21T09:12:00.572Z,88.63
2017-09-21T09:14:28.334Z,87.99
2017-09-21T09:16:56.352Z,87.83
2017-09-21T09:19:23.861Z,86.68
2017-09-21T09:21:51.841Z,85.64
2017-09-21T09:24:20.034Z,84.29
2017-09-21T09:26:48.149Z,82.72
2017-09-21T09:29:15.940Z,83.57
2017-09-21T09:31:43.768Z,84.42
2017-09-21T09:34:11.673Z,83.86
2017-09-21T09:36:39.800Z,84.29
2017-09-21T09:39:07.814Z,84.43
2017-09-21T09:41:35.782Z,84.39
2017-09-21T09:44:03.621Z,84.53
2017-09-21T09:46:31.559Z,84.59
2017-09-21T09:48:59.484Z,84.38
2017-09-21T09:51:27.665Z,84.10
2017-09-21T09:53:55.255Z,83.93
2017-09-21T09:56:23.059Z,83.72
2017-09-21T09:58:51.664Z,84.06
2017-09-21T10:01:19.592Z,82.86
2017-09-21T10:03:47.533Z,81.45
2017-09-21T10:06:15.371Z,79.81
2017-09-21T10:08:42.900Z,78.57
2017-09-21T10:11:10.389Z,79.58
2017-09-21T10:13:37.900Z,79.81
2017-09-21T10:16:05.374Z,79.25
2017-09-21T10:18:32.908Z,78.27
2017-09-21T10:21:00.381Z,80.18
2017-09-21T10:23:27.856Z,79.24
2017-09-21T10:25:55.324Z,78.12
2017-09-21T10:28:22.850Z,77.01
2017-09-21T10:30:50.337Z,76.49
2017-09-21T10:33:17.822Z,74.70
2017-09-21T10:35:45.293Z,76.26
2017-09-21T10:38:12.794Z,76.12
2017-09-21T10:40:40.260Z,76.48
2017-09-21T10:43:07.725Z,75.62
2017-09-21T10:45:35.217Z,75.67
2017-09-21T10:48:02.699Z,76.29
2017-09-21T10:50:30.195Z,75.24
2017-09-21T10:52:57.704Z,74.22
2017-09-21T10:55:25.272Z,75.71
2017-09-21T10:57:52.752Z,75.59
2017-09-21T11:00:20.240Z,75.37
2017-09-21T11:02:47.721Z,75.33
2017-09-21T11:05:15.305Z,75.41
2017-09-21T11:07:42.780Z,72.35
2017-09-21T11:10:10.306Z,72.19
2017-09-21T11:12:37.769Z,71.30
2017-09-21T11:15:05.237Z,70.12
2017-09-21T11:17:32.831Z,70.25
2017-09-21T11:20:00.341Z,70.58
2017-09-21T11:22:27.824Z,69.56
2017-09-21T11:24:55.311Z,68.18
2017-09-21T11:27:22.805Z,69.26
2017-09-21T11:29:50.281Z,69.30
2017-09-21T11:32:17.775Z,68.57
2017-09-21T11:34:45.288Z,67.87
2017-09-21T11:37:12.801Z,66.62
2017-09-21T11:39:40.264Z,66.63
2017-09-21T11:42:07.749Z,66.84
2017-09-21T11:44:35.230Z,64.95
2017-09-21T11:47:02.768Z,65.92
2017-09-21T11:49:30.241Z,65.99
2017-09-21T11:51:57.769Z,66.51
2017-09-21T11:54:25.297Z,66.49
2017-09-21T11:56:52.764Z,66.57
2017-09-21T11:59:20.245Z,64.63
2017-09-21T12:01:47.701Z,63.16
2017-09-21T12:04:15.193Z,62.35
2017-09-21T12:06:42.671Z,63.91
2017-09-21T12:09:10.148Z,62.67
2017-09-21T12:11:37.750Z,63.57
2017-09-21T12:14:05.312Z,64.91
2017-09-21T12:16:32.777Z,64.29
2017-09-21T12:19:00.268Z,64.53
2017-09-21T12:21:27.729Z,61.80
2017-09-21T12:23:55.236Z,60.54
2017-09-21T12:26:22.695Z,61.27
2017-09-21T12:28:50.197Z,61.46
2017-09-21T12:31:17.657Z,61.03
2017-09-21T12:33:45.120Z,61.75
2017-09-21T12:36:12.670Z,61.29
2017-09-21T12:38:40.840Z,62.96
2017-09-21T12:41:09.852Z,63.06
2017-09-21T12:43:37.598Z,61.69
2017-09-21T12:46:05.566Z,61.02
2017-09-21T12:48:33.492Z,61.16
2017-09-21T12:51:01.463Z,60.17
2017-09-21T12:53:29.354Z,60.68
2017-09-21T12:55:57.396Z,60.70
2017-09-21T12:58:25.204Z,60.42
2017-09-21T13:00:53.070Z,59.81
2017-09-21T13:03:21.038Z,57.81
2017-09-21T13:05:48.689Z,57.75
2017-09-21T13:08:16.769Z,56.10
2017-09-21T13:10:44.636Z,57.42
2017-09-21T13:13:13.042Z,58.62
2017-09-21T13:15:40.881Z,57.13
2017-09-21T13:18:08.747Z,57.80
2017-09-21T13:20:36.406Z,56.61
2017-09-21T13:23:03.917Z,56.59
2017-09-21T13:25:31.828Z,57.77
2017-09-21T13:27:59.667Z,58.64
2017-09-21T13:30:27.512Z,56.43
2017-09-21T13:32:55.328Z,57.89
2017-09-21T13:35:22.990Z,58.01
2017-09-21T13:37:51.060Z,58.14
2017-09-21T13:40:19.029Z,57.13
2017-09-21T13:42:46.868Z,57.47
2017-09-21T13:45:14.765Z,57.10
2017-09-21T13:47:42.319Z,57.38
2017-09-21T13:50:10.293Z,55.74
2017-09-21T13:52:38.137Z,56.28
2017-09-21T13:55:05.903Z,55.60
2017-09-21T13:57:33.580Z,56.75
2017-09-21T14:00:01.445Z,56.47
2017-09-21T14:02:29.299Z,54.85
2017-09-21T14:04:56.819Z,55.39
2017-09-21T14:07:24.288Z,54.83
2017-09-21T14:09:52.705Z,55.33
2017-09-21T14:12:20.173Z,56.70
2017-09-21T14:14:47.662Z,56.61
2017-09-21T14:17:15.123Z,55.40
2017-09-21T14:19:43.353Z,55.49
2017-09-21T14:22:11.703Z,55.39
2017-09-21T14:24:39.695Z,55.34
2017-09-21T14:27:07.871Z,55.29
2017-09-21T14:29:36.043Z,55.12
2017-09-21T14:32:04.360Z,55.55
2017-09-21T14:34:32.081Z,52.82
2017-09-21T14:37:00.358Z,49.98
2017-09-21T14:39:28.861Z,50.87
2017-09-21T14:41:56.989Z,50.67
2017-09-21T14:44:25.537Z,51.58
2017-09-21T14:46:53.900Z,50.13
2017-09-21T14:49:22.258Z,51.27
2017-09-21T14:51:50.522Z,50.30
2017-09-21T14:54:18.906Z,50.84
2017-09-21T14:56:46.787Z,50.11
2017-09-21T14:59:14.995Z,50.04
2017-09-21T15:01:43.226Z,49.78
2017-09-21T15:04:11.389Z,50.26
2017-09-21T15:06:39.001Z,51.29
2017-09-21T15:09:07.675Z,51.09
2017-09-21T15:11:35.256Z,49.91
2017-09-21T15:14:02.745Z,49.31
2017-09-21T15:16:30.208Z,50.59
2017-09-21T15:18:57.709Z,50.54
2017-09-21T15:21:25.177Z,51.77
2017-09-21T15:23:52.665Z,51.51
2017-09-21T15:26:20.208Z,51.75
2017-09-21T15:28:47.689Z,52.13
2017-09-21T15:31:15.182Z,52.40
2017-09-21T15:33:43.084Z,51.46
2017-09-21T15:36:10.560Z,51.28
2017-09-21T15:38:38.052Z,52.52
2017-09-21T15:41:05.515Z,51.28
2017-09-21T15:43:33.032Z,52.53
2017-09-21T15:46:00.513Z,52.81
2017-09-21T15:48:28.007Z,53.37
2017-09-21T15:50:55.501Z,53.26
2017-09-21T15:53:23.064Z,54.08
2017-09-21T15:55:50.601Z,54.92
2017-09-21T15:58:18.083Z,55.42
2017-09-21T16:00:45.572Z,55.04
2017-09-21T16:03:13.049Z,54.87
2017-09-21T16:05:40.550Z,55.26
2017-09-21T16:08:08.037Z,56.14
2017-09-21T16:10:35.969Z,56.75
2017-09-21T16:13:03.474Z,57.90
2017-09-21T16:15:30.974Z,59.15
2017-09-21T16:17:58.469Z,59.84
2017-09-21T16:20:25.980Z,60.46
2017-09-21T16:22:53.465Z,60.33
2017-09-21T16:25:20.960Z,61.57
2017-09-21T16:27:48.457Z,61.67
2017-09-21T16:30:15.929Z,62.50
2017-09-21T16:32:43.490Z,62.95
2017-09-21T16:35:11.028Z,64.03
2017-09-21T16:37:38.504Z,64.67
2017-09-21T16:40:06.037Z,65.78
2017-09-21T16:42:33.600Z,66.30
2017-09-21T16:45:01.112Z,68.62
2017-09-21T16:47:28.593Z,69.07
2017-09-21T16:49:57.042Z,70.03
2017-09-21T16:52:24.520Z,70.54
2017-09-21T16:54:51.986Z,69.93
2017-09-21T16:57:19.511Z,69.95
2017-09-21T16:59:46.987Z,70.41
2017-09-21T17:02:14.460Z,71.37
2017-09-21T17:04:41.934Z,71.86
2017-09-21T17:07:09.424Z,72.16
2017-09-21T17:09:36.889Z,72.78
2017-09-21T17:12:04.361Z,72.70
2017-09-21T17:14:31.842Z,72.68
2017-09-21T17:16:59.323Z,72.48
2017-09-21T17:19:26.878Z,72.64
2017-09-21T17:21:54.373Z,72.59
2017-09-21T17:24:21.834Z,73.00
2017-09-21T17:26:49.317Z,73.24
2017-09-21T17:29:16.783Z,73.38
2017-09-21T17:31:44.278Z,73.12
2017-09-21T17:34:11.833Z,73.60
2017-09-21T17:36:39.325Z,73.34
2017-09-21T17:39:06.778Z,73.89
2017-09-21T17:41:34.270Z,74.08
2017-09-21T17:44:01.729Z,74.15
2017-09-21T17:46:34.993Z,74.26
2017-09-21T17:49:02.453Z,74.44
2017-09-21T17:51:29.961Z,73.07
2017-09-21T17:53:57.450Z,73.38
2017-09-21T17:56:25.017Z,74.14
2017-09-21T17:58:52.517Z,74.37
2017-09-21T18:01:19.974Z,75.49
2017-09-21T18:03:47.469Z,75.57
2017-09-21T18:06:14.995Z,75.73
2017-09-21T18:08:42.474Z,76.15
2017-09-21T18:11:10.024Z,76.15
2017-09-21T18:13:37.496Z,76.84
2017-09-21T18:16:04.952Z,76.67
2017-09-21T18:18:32.493Z,77.22
2017-09-21T18:20:59.952Z,77.26
2017-09-21T18:23:27.436Z,77.08
2017-09-21T18:25:54.923Z,77.85
2017-09-21T18:28:22.418Z,77.91
2017-09-21T18:30:49.880Z,77.50
2017-09-21T18:33:17.385Z,76.90
2017-09-21T18:35:44.844Z,76.94
2017-09-21T18:38:12.337Z,77.20
2017-09-21T18:40:39.814Z,76.48
2017-09-21T18:43:07.292Z,77.21
2017-09-21T18:45:34.779Z,74.85
2017-09-21T18:48:02.300Z,75.89
2017-09-21T18:50:29.769Z,75.55
2017-09-21T18:52:57.256Z,76.51
2017-09-21T18:55:24.709Z,77.09
2017-09-21T18:57:52.245Z,78.18
2017-09-21T19:00:19.752Z,78.39
2017-09-21T19:02:47.233Z,78.46
2017-09-21T19:05:14.713Z,78.65
2017-09-21T19:07:42.175Z,79.19
2017-09-21T19:10:09.668Z,79.56
2017-09-21T19:12:37.159Z,80.21
2017-09-21T19:15:04.640Z,80.66
2017-09-21T19:17:32.102Z,81.02
2017-09-21T19:20:00.357Z,81.64
2017-09-21T19:22:27.888Z,81.38
2017-09-21T19:24:55.373Z,81.38
2017-09-21T19:27:22.851Z,81.03
2017-09-21T19:29:50.340Z,81.42
2017-09-21T19:32:17.804Z,81.49
2017-09-21T19:34:45.287Z,81.69
2017-09-21T19:37:12.742Z,81.83
2017-09-21T19:39:40.233Z,81.94
2017-09-21T19:42:07.776Z,82.22
2017-09-21T19:44:35.295Z,82.23
2017-09-21T19:47:02.761Z,83.22
2017-09-21T19:49:30.322Z,82.91
2017-09-21T19:51:57.809Z,83.14
2017-09-21T19:54:25.341Z,83.52
2017-09-21T19:56:52.833Z,83.35
2017-09-21T19:59:20.290Z,83.35
2017-09-21T20:01:47.767Z,82.84
2017-09-21T20:04:15.221Z,82.92
2017-09-21T20:06:42.701Z,82.43
2017-09-21T20:09:10.187Z,83.12
2017-09-21T20:11:37.678Z,82.92
2017-09-21T20:14:05.173Z,83.13
2017-09-21T20:16:32.657Z,83.19
2017-09-21T20:19:00.209Z,83.69
2017-09-21T20:21:27.679Z,84.42
2017-09-21T20:23:55.176Z,84.16
2017-09-21T20:26:22.642Z,83.43
2017-09-21T20:28:50.132Z,83.34
2017-09-21T20:31:17.616Z,83.64
2017-09-21T20:33:45.096Z,84.44
2017-09-21T20:36:12.558Z,84.59
2017-09-21T20:38:40.045Z,84.69
2017-09-21T20:41:07.505Z,84.01
2017-09-21T20:43:34.996Z,83.80
2017-09-21T20:46:02.471Z,84.58
2017-09-21T20:48:29.967Z,84.10
2017-09-21T20:50:57.430Z,84.55
2017-09-21T20:53:25.013Z,84.61
2017-09-21T20:55:52.485Z,84.15
2017-09-21T20:58:19.949Z,84.73
2017-09-21T21:00:47.486Z,84.30
2017-09-21T21:03:14.940Z,84.10
2017-09-21T21:05:42.429Z,84.44
2017-09-21T21:08:09.917Z,84.43
2017-09-21T21:10:37.403Z,83.92
2017-09-21T21:13:04.969Z,84.77
2017-09-21T21:15:32.452Z,84.19
2017-09-21T21:17:59.917Z,85.14
2017-09-21T21:20:27.405Z,85.29
2017-09-21T21:22:54.873Z,84.91
2017-09-21T21:25:22.415Z,85.07
2017-09-21T21:27:49.905Z,84.46
2017-09-21T21:30:17.432Z,84.64
2017-09-21T21:32:44.897Z,84.32
2017-09-21T21:35:12.394Z,84.69
2017-09-21T21:37:39.869Z,84.88
2017-09-21T21:40:07.341Z,84.12
2017-09-21T21:42:34.844Z,84.42
2017-09-21T21:45:02.296Z,84.35
2017-09-21T21:47:29.795Z,84.33
2017-09-21T21:49:57.275Z,83.96
2017-09-21T21:52:24.749Z,85.11
2017-09-21T21:54:52.232Z,83.92
2017-09-21T21:57:19.709Z,84.50
2017-09-21T21:59:47.185Z,84.88
2017-09-21T22:02:14.665Z,84.92
2017-09-21T22:04:42.160Z,85.16
2017-09-21T22:07:09.636Z,85.24
2017-09-21T22:09:37.113Z,85.31
2017-09-21T22:12:04.574Z,85.29
2017-09-21T22:14:32.049Z,84.81
2017-09-21T22:16:59.524Z,85.47
2017-09-21T22:19:27.032Z,85.31
2017-09-21T22:21:54.501Z,85.85
2017-09-21T22:24:21.992Z,85.77
2017-09-21T22:26:49.462Z,85.12
2017-09-21T22:29:16.912Z,85.26
2017-09-21T22:31:44.390Z,85.26
2017-09-21T22:34:11.968Z,85.77
2017-09-21T22:36:39.450Z,85.81
2017-09-21T22:39:06.933Z,85.21
2017-09-21T22:41:34.413Z,85.18
2017-09-21T22:44:01.897Z,85.14
2017-09-21T22:46:29.418Z,86.03
2017-09-21T22:48:56.875Z,85.72
2017-09-21T22:51:24.448Z,85.35
2017-09-21T22:53:51.901Z,85.91
2017-09-21T22:56:19.378Z,85.80
2017-09-21T22:58:46.846Z,86.11
2017-09-21T23:01:14.360Z,85.76
2017-09-21T23:03:41.817Z,85.73
2017-09-21T23:06:09.277Z,84.81
2017-09-21T23:08:36.751Z,85.38
2017-09-21T23:11:04.254Z,85.44
2017-09-21T23:13:31.739Z,85.75
2017-09-21T23:15:59.205Z,85.29
2017-09-21T23:18:26.713Z,85.90
2017-09-21T23:20:54.179Z,85.71
2017-09-21T23:23:21.699Z,85.79
2017-09-21T23:25:49.155Z,85.71
2017-09-21T23:28:16.685Z,86.27
2017-09-21T23:30:44.153Z,85.44
2017-09-21T23:33:11.614Z,85.49
2017-09-21T23:35:39.088Z,85.59
2017-09-21T23:38:06.544Z,85.70
2017-09-21T23:40:34.105Z,85.05
2017-09-21T23:43:01.598Z,85.43
2017-09-21T23:45:29.084Z,86.37
2017-09-21T23:47:56.532Z,86.96
2017-09-21T23:50:24.026Z,86.41
2017-09-21T23:52:51.589Z,85.80
2017-09-21T23:55:19.077Z,85.58
2017-09-21T23:57:46.544Z,85.25
